createdAt,value
2022-10-09T00:01:29.437Z,8.50
2022-10-09T00:03:58.383Z,6.80
2022-10-09T00:06:32.321Z,7.20
2022-10-09T00:09:04.786Z,7.70
2022-10-09T00:11:34.309Z,7.50
2022-10-09T00:14:03.847Z,6.60
2022-10-09T00:16:32.300Z,7.00
2022-10-09T00:19:00.676Z,9.60
2022-10-09T00:21:32.135Z,8.20
2022-10-09T00:24:02.652Z,9.90
2022-10-09T00:26:31.189Z,13.80
2022-10-09T00:28:59.776Z,7.70
2022-10-09T00:31:28.017Z,9.10
2022-10-09T00:33:56.546Z,8.00
2022-10-09T00:36:26.196Z,8.10
2022-10-09T00:38:55.196Z,10.70
2022-10-09T00:41:30.009Z,8.60
2022-10-09T00:44:00.594Z,14.80
2022-10-09T00:46:33.854Z,7.50
2022-10-09T00:49:08.081Z,14.70
2022-10-09T00:51:37.409Z,11.40
2022-10-09T00:54:08.808Z,8.30
2022-10-09T00:56:36.743Z,18.20
2022-10-09T00:59:06.271Z,8.70
2022-10-09T01:01:34.342Z,9.20
2022-10-09T01:04:02.348Z,8.70
2022-10-09T01:06:35.635Z,10.60
2022-10-09T01:09:11.939Z,10.70
2022-10-09T01:11:59.013Z,11.10
2022-10-09T01:17:21.208Z,9.80
2022-10-09T01:20:25.129Z,13.50
2022-10-09T01:22:55.897Z,9.60
2022-10-09T01:25:36.512Z,13.30
2022-10-09T01:28:06.836Z,8.50
2022-10-09T01:30:35.551Z,9.30
2022-10-09T01:33:03.622Z,10.10
2022-10-09T01:35:31.912Z,8.00
2022-10-09T01:38:00.659Z,10.10
2022-10-09T01:40:29.346Z,7.80
2022-10-09T01:42:59.525Z,12.70
2022-10-09T01:45:39.425Z,8.00
2022-10-09T01:48:12.637Z,8.60
2022-10-09T01:50:51.700Z,12.70
2022-10-09T01:53:21.191Z,8.80
2022-10-09T01:56:08.287Z,8.90
2022-10-09T01:58:53.043Z,9.90
2022-10-09T02:02:06.907Z,8.30
2022-10-09T02:04:39.181Z,16.40
2022-10-09T02:07:07.884Z,9.70
2022-10-09T02:09:39.674Z,8.20
2022-10-09T02:12:09.914Z,8.50
2022-10-09T02:14:39.433Z,9.80
2022-10-09T02:17:17.264Z,10.40
2022-10-09T02:19:52.250Z,8.10
2022-10-09T02:22:24.657Z,9.00
2022-10-09T02:24:52.802Z,7.10
2022-10-09T02:27:22.001Z,7.90
2022-10-09T02:29:50.816Z,9.70
2022-10-09T02:32:19.164Z,8.60
2022-10-09T02:34:46.933Z,7.50
2022-10-09T02:37:15.421Z,8.80
2022-10-09T02:39:43.887Z,7.00
2022-10-09T02:42:11.649Z,10.40
2022-10-09T02:44:39.589Z,7.30
2022-10-09T02:47:07.413Z,6.80
2022-10-09T02:49:35.299Z,8.60
2022-10-09T02:52:03.114Z,7.90
2022-10-09T02:54:31.025Z,7.00
2022-10-09T02:56:58.789Z,8.20
2022-10-09T02:59:27.101Z,7.60
2022-10-09T03:01:55.948Z,10.50
2022-10-09T03:04:23.851Z,8.00
2022-10-09T03:06:52.861Z,10.00
2022-10-09T03:09:20.688Z,8.00
2022-10-09T03:11:48.546Z,10.70
2022-10-09T03:14:16.385Z,9.50
2022-10-09T03:16:44.202Z,8.90
2022-10-09T03:19:12.017Z,8.60
2022-10-09T03:21:39.962Z,11.80
2022-10-09T03:24:08.188Z,10.70
2022-10-09T03:26:35.955Z,8.90
2022-10-09T03:29:03.898Z,9.20
2022-10-09T03:34:19.513Z,9.00
2022-10-09T03:36:47.395Z,11.30
2022-10-09T03:39:15.209Z,9.60
2022-10-09T03:41:43.020Z,10.90
2022-10-09T03:44:10.841Z,8.80
2022-10-09T03:46:38.755Z,10.70
2022-10-09T03:49:06.628Z,12.20
2022-10-09T03:51:34.512Z,10.30
2022-10-09T03:54:02.365Z,10.90
2022-10-09T03:56:30.384Z,11.30
2022-10-09T03:58:58.263Z,9.00
2022-10-09T04:01:26.256Z,11.10
2022-10-09T04:03:54.084Z,7.50
2022-10-09T04:06:22.024Z,8.20
2022-10-09T04:08:49.839Z,9.10
2022-10-09T04:11:17.796Z,12.20
2022-10-09T04:13:45.863Z,10.10
2022-10-09T04:16:13.957Z,7.30
2022-10-09T04:18:43.595Z,7.10
2022-10-09T04:21:13.173Z,7.80
2022-10-09T04:23:41.050Z,7.50
2022-10-09T04:26:11.221Z,9.00
2022-10-09T04:28:39.453Z,14.20
2022-10-09T04:31:07.416Z,7.20
2022-10-09T04:33:35.363Z,8.00
2022-10-09T04:36:03.419Z,6.60
2022-10-09T04:38:31.455Z,6.30
2022-10-09T04:41:05.676Z,9.20
2022-10-09T04:43:35.164Z,6.30
2022-10-09T04:46:08.091Z,6.60
2022-10-09T04:48:40.592Z,5.90
2022-10-09T04:51:09.548Z,6.00
2022-10-09T04:53:38.699Z,6.40
2022-10-09T04:56:12.995Z,5.90
2022-10-09T04:58:41.290Z,6.20
2022-10-09T05:01:15.390Z,5.80
2022-10-09T05:03:43.598Z,6.70
2022-10-09T05:06:13.915Z,6.20
2022-10-09T05:08:42.894Z,6.90
2022-10-09T05:11:22.872Z,6.50
2022-10-09T05:13:53.790Z,7.20
2022-10-09T05:16:25.019Z,11.20
2022-10-09T05:18:55.707Z,6.60
2022-10-09T05:21:25.262Z,5.40
2022-10-09T05:23:54.695Z,5.70
2022-10-09T05:26:24.313Z,8.00
2022-10-09T05:28:52.544Z,9.60
2022-10-09T05:31:30.256Z,6.10
2022-10-09T05:34:00.315Z,5.80
2022-10-09T05:36:28.747Z,7.00
2022-10-09T05:39:01.244Z,6.90
2022-10-09T05:41:31.982Z,6.30
2022-10-09T05:44:04.021Z,19.00
2022-10-09T05:46:31.957Z,6.30
2022-10-09T05:49:02.253Z,5.70
2022-10-09T05:51:32.653Z,7.20
2022-10-09T05:54:03.802Z,5.90
2022-10-09T05:56:36.805Z,12.30
2022-10-09T05:59:07.690Z,6.60
2022-10-09T06:01:41.257Z,6.80
2022-10-09T06:04:14.277Z,6.40
2022-10-09T06:06:43.140Z,7.20
2022-10-09T06:09:11.600Z,8.30
2022-10-09T06:11:40.521Z,6.50
2022-10-09T06:14:10.244Z,5.90
2022-10-09T06:16:40.438Z,6.70
2022-10-09T06:19:11.872Z,6.00
2022-10-09T06:21:39.863Z,8.30
2022-10-09T06:24:08.445Z,6.90
2022-10-09T06:26:36.321Z,5.70
2022-10-09T06:29:04.135Z,5.30
2022-10-09T06:31:33.420Z,7.60
2022-10-09T06:34:03.449Z,5.20
2022-10-09T06:36:34.598Z,7.10
2022-10-09T06:39:07.023Z,5.10
2022-10-09T06:41:35.807Z,5.00
2022-10-09T06:46:48.761Z,4.70
2022-10-09T06:49:16.623Z,5.00
2022-10-09T06:51:44.505Z,5.00
2022-10-09T06:54:16.721Z,4.70
2022-10-09T06:56:44.686Z,4.80
2022-10-09T06:59:13.166Z,5.60
2022-10-09T07:01:41.289Z,4.60
2022-10-09T07:04:12.024Z,6.00
2022-10-09T07:06:42.807Z,5.30
2022-10-09T07:09:12.948Z,7.10
2022-10-09T07:11:49.804Z,10.80
2022-10-09T07:14:18.167Z,5.70
2022-10-09T07:16:48.546Z,5.10
2022-10-09T07:19:17.647Z,5.60
2022-10-09T07:21:48.185Z,5.40
2022-10-09T07:24:17.404Z,5.60
2022-10-09T07:26:46.680Z,7.10
2022-10-09T07:29:17.268Z,5.80
2022-10-09T07:31:45.400Z,5.20
2022-10-09T07:34:13.363Z,6.10
2022-10-09T07:36:41.166Z,5.40
2022-10-09T07:39:08.914Z,5.70
2022-10-09T07:41:36.850Z,7.10
2022-10-09T07:44:04.695Z,6.80
2022-10-09T07:46:33.952Z,5.20
2022-10-09T07:49:03.153Z,5.00
2022-10-09T07:51:31.519Z,5.30
2022-10-09T07:54:00.384Z,6.70
2022-10-09T07:56:31.306Z,7.20
2022-10-09T07:59:02.136Z,5.40
2022-10-09T08:01:32.251Z,7.70
2022-10-09T08:04:01.309Z,6.20
2022-10-09T08:06:30.604Z,5.10
2022-10-09T08:09:00.367Z,8.60
2022-10-09T08:11:29.929Z,6.70
2022-10-09T08:13:58.128Z,6.50
2022-10-09T08:16:27.377Z,6.00
2022-10-09T08:18:59.990Z,6.80
2022-10-09T08:21:28.773Z,5.80
2022-10-09T08:23:58.684Z,5.90
2022-10-09T08:26:29.586Z,6.00
2022-10-09T08:29:02.956Z,7.60
2022-10-09T08:31:31.966Z,6.10
2022-10-09T08:34:02.912Z,7.70
2022-10-09T08:36:31.549Z,8.10
2022-10-09T08:38:59.463Z,6.40
2022-10-09T08:41:33.207Z,7.60
2022-10-09T08:44:26.057Z,7.40
2022-10-09T08:47:13.003Z,6.40
2022-10-09T08:52:50.161Z,6.50
2022-10-09T08:55:24.081Z,7.90
2022-10-09T08:57:55.093Z,10.30
2022-10-09T09:00:27.250Z,7.40
2022-10-09T09:03:26.384Z,6.70
2022-10-09T09:06:06.685Z,6.50
2022-10-09T09:08:48.449Z,7.30
2022-10-09T09:11:21.637Z,8.80
2022-10-09T09:14:34.592Z,9.10
2022-10-09T09:17:17.093Z,8.00
2022-10-09T09:19:47.948Z,7.50
2022-10-09T09:22:16.817Z,7.70
2022-10-09T09:25:07.573Z,6.20
2022-10-09T09:27:37.741Z,7.80
2022-10-09T09:30:14.159Z,6.70
2022-10-09T09:35:38.167Z,7.20
2022-10-09T09:38:06.037Z,6.70
2022-10-09T09:40:37.185Z,9.10
2022-10-09T09:43:17.701Z,7.80
2022-10-09T09:45:46.965Z,6.20
2022-10-09T09:48:30.517Z,8.50
2022-10-09T09:51:23.507Z,10.60
2022-10-09T09:53:50.013Z,7.40
2022-10-09T09:56:18.804Z,11.60
2022-10-09T09:58:50.000Z,10.80
2022-10-09T10:01:25.404Z,6.60
2022-10-09T10:03:56.896Z,8.70
2022-10-09T10:06:32.399Z,7.90
2022-10-09T10:09:12.698Z,10.30
2022-10-09T10:11:47.998Z,7.80
2022-10-09T10:14:17.699Z,6.60
2022-10-09T10:16:49.951Z,12.90
2022-10-09T10:19:28.002Z,8.90
2022-10-09T10:22:01.476Z,9.40
2022-10-09T10:24:36.037Z,6.60
2022-10-09T10:27:26.820Z,10.20
2022-10-09T10:30:13.379Z,9.60
2022-10-09T10:35:20.500Z,12.90
2022-10-09T10:38:05.464Z,8.90
2022-10-09T10:40:42.325Z,8.40
2022-10-09T10:43:10.114Z,9.90
2022-10-09T10:46:04.154Z,6.50
2022-10-09T10:48:37.953Z,6.50
2022-10-09T10:51:30.997Z,7.70
2022-10-09T10:54:29.546Z,11.90
2022-10-09T10:57:15.908Z,7.90
2022-10-09T11:00:06.392Z,8.00
2022-10-09T11:02:48.835Z,9.60
2022-10-09T11:05:22.356Z,6.90
2022-10-09T11:08:20.031Z,10.80
2022-10-09T11:10:53.496Z,7.50
2022-10-09T11:13:38.765Z,8.90
2022-10-09T11:16:15.699Z,6.00
2022-10-09T11:19:01.927Z,6.40
2022-10-09T11:21:53.410Z,5.20
2022-10-09T11:24:45.466Z,5.20
2022-10-09T11:27:31.191Z,6.50
2022-10-09T11:30:06.045Z,6.80
2022-10-09T11:32:49.047Z,5.20
2022-10-09T11:35:24.268Z,5.20
2022-10-09T11:38:04.640Z,6.20
2022-10-09T11:40:39.168Z,6.80
2022-10-09T11:43:42.684Z,5.50
2022-10-09T11:46:27.816Z,5.30
2022-10-09T11:49:25.101Z,5.20
2022-10-09T11:52:24.612Z,7.40
2022-10-09T11:54:52.453Z,5.60
2022-10-09T11:57:28.475Z,6.50
2022-10-09T12:00:07.125Z,5.50
2022-10-09T12:02:36.645Z,5.30
2022-10-09T12:05:39.957Z,6.20
2022-10-09T12:08:18.299Z,6.50
2022-10-09T12:10:55.386Z,5.10
2022-10-09T12:13:32.191Z,6.10
2022-10-09T12:16:00.322Z,8.00
2022-10-09T12:18:36.296Z,6.20
2022-10-09T12:21:18.608Z,5.00
2022-10-09T12:23:47.736Z,7.20
2022-10-09T12:26:17.909Z,10.50
2022-10-09T12:28:53.753Z,6.40
2022-10-09T12:31:26.493Z,6.10
2022-10-09T12:34:23.272Z,5.40
2022-10-09T12:36:51.126Z,5.50
2022-10-09T12:39:24.260Z,6.20
2022-10-09T12:41:56.994Z,6.80
2022-10-09T12:44:35.401Z,7.30
2022-10-09T12:47:13.188Z,12.30
2022-10-09T12:49:41.141Z,7.80
2022-10-09T12:52:16.540Z,5.40
2022-10-09T12:54:45.287Z,6.80
2022-10-09T12:57:15.832Z,8.50
2022-10-09T12:59:45.729Z,5.40
2022-10-09T13:02:20.191Z,6.10
2022-10-09T13:04:57.785Z,6.30
2022-10-09T13:07:28.517Z,10.00
2022-10-09T13:10:16.637Z,7.50
2022-10-09T13:12:53.532Z,6.70
2022-10-09T13:15:34.963Z,6.40
2022-10-09T13:18:23.309Z,6.80
2022-10-09T13:21:06.400Z,5.80
2022-10-09T13:23:35.708Z,5.80
2022-10-09T13:26:05.965Z,8.60
2022-10-09T13:28:33.844Z,8.20
2022-10-09T13:31:08.487Z,6.80
2022-10-09T13:33:36.407Z,5.90
2022-10-09T13:36:04.290Z,5.90
2022-10-09T13:38:34.906Z,5.60
2022-10-09T13:41:03.197Z,5.90
2022-10-09T13:43:31.241Z,6.80
2022-10-09T13:46:00.657Z,5.50
2022-10-09T13:48:31.118Z,7.50
2022-10-09T13:50:59.955Z,5.70
2022-10-09T13:53:28.007Z,9.10
2022-10-09T13:56:00.042Z,6.90
2022-10-09T13:58:29.228Z,6.50
2022-10-09T14:00:58.267Z,5.70
2022-10-09T14:03:26.146Z,5.50
2022-10-09T14:05:59.535Z,5.60
2022-10-09T14:08:27.420Z,6.20
2022-10-09T14:10:58.901Z,6.30
2022-10-09T14:13:27.809Z,6.70
2022-10-09T14:15:55.981Z,7.50
2022-10-09T14:18:24.128Z,6.40
2022-10-09T14:20:51.957Z,15.30
2022-10-09T14:23:19.897Z,9.60
2022-10-09T14:25:47.838Z,13.40
2022-10-09T14:28:15.691Z,7.80
2022-10-09T14:30:44.195Z,8.10
2022-10-09T14:33:12.920Z,6.30
2022-10-09T14:35:40.891Z,7.00
2022-10-09T14:38:08.814Z,13.00
2022-10-09T14:40:42.991Z,7.20
2022-10-09T14:43:11.944Z,8.20
2022-10-09T14:45:39.889Z,9.70
2022-10-09T14:48:07.815Z,9.10
2022-10-09T14:50:36.522Z,14.10
2022-10-09T14:53:04.492Z,10.40
2022-10-09T14:55:34.797Z,8.90
2022-10-09T14:58:02.673Z,11.40
2022-10-09T15:00:30.637Z,12.90
2022-10-09T15:02:59.792Z,10.40
2022-10-09T15:05:27.993Z,10.00
2022-10-09T15:07:55.840Z,12.40
2022-10-09T15:10:25.617Z,13.20
2022-10-09T15:12:53.608Z,11.00
2022-10-09T15:15:21.502Z,11.50
2022-10-09T15:17:49.623Z,14.50
2022-10-09T15:20:17.817Z,14.40
2022-10-09T15:22:45.762Z,11.60
2022-10-09T15:25:15.761Z,12.70
2022-10-09T15:27:43.740Z,15.30
2022-10-09T15:30:12.018Z,12.30
2022-10-09T15:32:39.937Z,13.20
2022-10-09T15:35:08.287Z,15.30
2022-10-09T15:37:36.163Z,11.10
2022-10-09T15:40:04.129Z,14.30
2022-10-09T15:42:32.474Z,12.00
2022-10-09T15:45:00.300Z,12.90
2022-10-09T15:47:49.915Z,16.40
2022-10-09T15:50:16.261Z,13.90
2022-10-09T15:52:44.247Z,15.80
2022-10-09T15:55:12.067Z,11.30
2022-10-09T15:57:39.926Z,16.70
2022-10-09T16:00:08.302Z,13.60
2022-10-09T16:02:36.745Z,13.40
2022-10-09T16:05:05.384Z,12.90
2022-10-09T16:07:33.219Z,15.50
2022-10-09T16:10:01.164Z,11.70
2022-10-09T16:12:29.154Z,12.00
2022-10-09T16:14:57.029Z,12.80
2022-10-09T16:17:25.100Z,12.60
2022-10-09T16:19:52.921Z,13.50
2022-10-09T16:22:20.870Z,11.50
2022-10-09T16:24:48.708Z,13.50
2022-10-09T16:27:16.500Z,17.10
2022-10-09T16:29:44.608Z,17.50
2022-10-09T16:32:12.588Z,14.30
2022-10-09T16:34:40.947Z,14.00
2022-10-09T16:37:08.771Z,10.80
2022-10-09T16:39:36.496Z,12.90
2022-10-09T16:42:04.356Z,14.90
2022-10-09T16:44:32.415Z,13.40
2022-10-09T16:47:00.229Z,13.10
2022-10-09T16:49:28.327Z,13.60
2022-10-09T16:51:56.124Z,16.80
2022-10-09T16:54:24.061Z,12.10
2022-10-09T16:56:51.966Z,14.00
2022-10-09T16:59:19.737Z,15.70
2022-10-09T17:01:49.616Z,16.90
2022-10-09T17:04:17.583Z,13.80
2022-10-09T17:06:46.489Z,16.90
2022-10-09T17:09:14.786Z,14.20
2022-10-09T17:11:43.409Z,21.40
2022-10-09T17:14:12.209Z,15.80
2022-10-09T17:16:42.134Z,19.80
2022-10-09T17:19:10.218Z,13.20
2022-10-09T17:21:38.095Z,19.70
2022-10-09T17:24:07.701Z,19.80
2022-10-09T17:26:36.048Z,21.00
2022-10-09T17:29:05.065Z,16.40
2022-10-09T17:31:34.379Z,18.40
2022-10-09T17:34:04.082Z,17.80
2022-10-09T17:36:35.256Z,19.70
2022-10-09T17:39:05.262Z,15.30
2022-10-09T17:41:34.609Z,18.40
2022-10-09T17:44:03.736Z,18.50
2022-10-09T17:46:31.873Z,15.40
2022-10-09T17:48:59.902Z,16.60
2022-10-09T17:51:39.773Z,17.50
2022-10-09T17:54:13.682Z,16.50
2022-10-09T17:56:42.512Z,16.60
2022-10-09T17:59:10.504Z,18.70
2022-10-09T18:01:38.945Z,17.20
2022-10-09T18:04:07.075Z,18.50
2022-10-09T18:06:35.539Z,13.30
2022-10-09T18:09:04.329Z,15.20
2022-10-09T18:11:32.434Z,17.00
2022-10-09T18:14:01.979Z,12.10
2022-10-09T18:16:36.119Z,13.10
2022-10-09T18:19:13.075Z,12.70
2022-10-09T18:21:44.171Z,15.40
2022-10-09T18:24:13.883Z,12.60
2022-10-09T18:26:42.841Z,16.70
2022-10-09T18:29:11.502Z,11.70
2022-10-09T18:31:39.347Z,16.40
2022-10-09T18:34:07.243Z,12.60
2022-10-09T18:36:36.262Z,14.20
2022-10-09T18:39:09.713Z,13.00
2022-10-09T18:41:38.236Z,13.60
2022-10-09T18:44:08.935Z,11.00
2022-10-09T18:46:42.569Z,15.80
2022-10-09T18:49:12.546Z,13.00
2022-10-09T18:51:41.957Z,12.40
2022-10-09T18:54:15.779Z,12.90
2022-10-09T18:56:46.820Z,11.50
2022-10-09T18:59:18.481Z,13.10
2022-10-09T19:01:46.789Z,11.70
2022-10-09T19:04:15.294Z,12.00
2022-10-09T19:06:43.141Z,14.60
2022-10-09T19:10:22.029Z,13.50
2022-10-09T19:27:28.867Z,14.10
2022-10-09T19:29:56.913Z,13.70
2022-10-09T19:32:24.746Z,14.70
2022-10-09T19:34:53.053Z,15.10
2022-10-09T19:37:22.803Z,13.50
2022-10-09T19:39:51.766Z,13.60
2022-10-09T19:42:19.626Z,12.60
2022-10-09T19:44:47.590Z,11.70
2022-10-09T19:47:16.256Z,11.40
2022-10-09T19:49:44.295Z,10.20
2022-10-09T19:52:12.206Z,11.30
2022-10-09T19:54:40.318Z,13.50
2022-10-09T19:57:08.224Z,9.70
2022-10-09T19:59:36.096Z,10.60
2022-10-09T20:02:29.216Z,11.80
2022-10-09T20:04:57.289Z,13.40
2022-10-09T20:07:25.137Z,11.00
2022-10-09T20:09:53.134Z,13.00
2022-10-09T20:13:23.884Z,10.00
2022-10-09T20:15:48.799Z,12.30
2022-10-09T20:18:16.732Z,9.60
2022-10-09T20:20:48.659Z,8.90
2022-10-09T20:42:06.875Z,9.20
2022-10-09T20:44:35.395Z,9.70
2022-10-09T20:47:05.847Z,10.70
2022-10-09T20:49:34.319Z,12.60
2022-10-09T20:52:02.849Z,12.70
2022-10-09T20:54:31.205Z,11.20
2022-10-09T20:56:59.149Z,16.60
2022-10-09T20:59:27.067Z,15.20
2022-10-09T21:01:55.708Z,11.80
2022-10-09T21:04:23.815Z,11.70
2022-10-09T21:06:51.754Z,11.70
2022-10-09T21:09:19.762Z,12.90
2022-10-09T21:11:47.698Z,14.00
2022-10-09T21:14:15.937Z,11.80
2022-10-09T21:16:44.036Z,15.30
2022-10-09T21:19:12.126Z,14.20
2022-10-09T21:21:40.108Z,12.20
2022-10-09T21:24:08.129Z,14.30
2022-10-09T21:26:36.085Z,13.00
2022-10-09T21:29:05.217Z,12.50
2022-10-09T21:31:34.043Z,13.00
2022-10-09T21:34:02.648Z,10.30
2022-10-09T21:37:02.186Z,9.70
2022-10-09T21:39:33.193Z,9.40
2022-10-09T21:42:01.089Z,11.40
2022-10-09T21:44:30.166Z,13.80
2022-10-09T21:46:58.319Z,13.70
2022-10-09T21:49:28.006Z,9.20
2022-10-09T21:51:56.427Z,12.00
2022-10-09T21:54:24.478Z,9.80
2022-10-09T21:56:52.500Z,11.00
2022-10-09T21:59:20.303Z,9.40
2022-10-09T22:01:48.141Z,10.40
2022-10-09T22:04:17.367Z,8.90
2022-10-09T22:06:45.152Z,11.50
2022-10-09T22:09:13.044Z,10.00
2022-10-09T22:11:40.957Z,8.80
2022-10-09T22:14:08.766Z,8.50
2022-10-09T22:16:37.193Z,9.00
2022-10-09T22:19:05.045Z,10.50
2022-10-09T22:21:33.020Z,10.60
2022-10-09T22:24:01.721Z,10.10
2022-10-09T22:26:29.630Z,10.00
2022-10-09T22:28:57.465Z,9.70
2022-10-09T22:31:27.688Z,9.00
2022-10-09T22:34:00.460Z,10.00
2022-10-09T22:36:30.963Z,9.30
2022-10-09T22:39:03.108Z,10.90
2022-10-09T22:41:31.857Z,7.10
2022-10-09T22:44:03.840Z,8.40
2022-10-09T22:46:40.621Z,8.10
2022-10-09T22:49:12.468Z,8.70
2022-10-09T22:51:41.292Z,10.60
2022-10-09T22:54:10.894Z,9.00
2022-10-09T22:56:41.321Z,8.80
2022-10-09T22:59:11.815Z,9.60
2022-10-09T23:01:44.894Z,11.30
2022-10-09T23:04:14.295Z,12.30
2022-10-09T23:06:43.628Z,9.70
2022-10-09T23:09:13.703Z,9.30
2022-10-09T23:11:42.336Z,9.70
2022-10-09T23:14:11.300Z,10.00
2022-10-09T23:16:40.109Z,11.40
2022-10-09T23:19:09.318Z,9.00
2022-10-09T23:21:39.891Z,9.40
2022-10-09T23:24:09.679Z,9.90
2022-10-09T23:26:38.177Z,10.70
2022-10-09T23:29:09.414Z,11.30
2022-10-09T23:31:37.343Z,8.20
2022-10-09T23:34:06.233Z,9.80
2022-10-09T23:36:34.345Z,8.30
2022-10-09T23:39:04.064Z,8.90
2022-10-09T23:41:32.168Z,8.50
2022-10-09T23:44:00.105Z,8.60
2022-10-09T23:46:33.066Z,12.50
2022-10-09T23:49:01.548Z,9.70
2022-10-09T23:51:30.207Z,8.60
2022-10-09T23:53:58.716Z,11.00
2022-10-09T23:56:36.657Z,12.40
2022-10-09T23:59:08.885Z,8.80
